sensor_id;sensor_type;location;lat;lon;timestamp;P1;durP1;ratioP1;P2;durP2;ratioP2
4317;SDS011;2172;53.576;9.934;2024-01-30T00:00:21;15.00;;;12.43;;
4317;SDS011;2172;53.576;9.934;2024-01-30T00:02:48;16.17;;;12.37;;
4317;SDS011;2172;53.576;9.934;2024-01-30T00:05:16;14.43;;;11.90;;
4317;SDS011;2172;53.576;9.934;2024-01-30T00:07:44;16.50;;;13.97;;
4317;SDS011;2172;53.576;9.934;2024-01-30T00:10:12;15.77;;;13.60;;
4317;SDS011;2172;53.576;9.934;2024-01-30T00:12:39;16.03;;;12.70;;
4317;SDS011;2172;53.576;9.934;2024-01-30T00:15:07;17.80;;;13.90;;
4317;SDS011;2172;53.576;9.934;2024-01-30T00:17:37;14.60;;;13.10;;
4317;SDS011;2172;53.576;9.934;2024-01-30T00:20:05;19.73;;;13.53;;
4317;SDS011;2172;53.576;9.934;2024-01-30T00:22:34;14.77;;;13.03;;
4317;SDS011;2172;53.576;9.934;2024-01-30T00:25:02;14.87;;;12.83;;
4317;SDS011;2172;53.576;9.934;2024-01-30T00:27:30;16.90;;;13.13;;
4317;SDS011;2172;53.576;9.934;2024-01-30T00:29:57;13.67;;;12.20;;
4317;SDS011;2172;53.576;9.934;2024-01-30T00:32:25;17.63;;;13.30;;
4317;SDS011;2172;53.576;9.934;2024-01-30T00:34:53;25.23;;;17.30;;
4317;SDS011;2172;53.576;9.934;2024-01-30T00:37:21;18.50;;;14.10;;
4317;SDS011;2172;53.576;9.934;2024-01-30T00:39:49;19.70;;;13.13;;
4317;SDS011;2172;53.576;9.934;2024-01-30T00:42:16;18.20;;;14.50;;
4317;SDS011;2172;53.576;9.934;2024-01-30T00:44:44;20.10;;;14.60;;
4317;SDS011;2172;53.576;9.934;2024-01-30T00:47:12;20.23;;;14.30;;
4317;SDS011;2172;53.576;9.934;2024-01-30T00:49:39;16.87;;;14.17;;
4317;SDS011;2172;53.576;9.934;2024-01-30T00:52:08;19.80;;;16.40;;
4317;SDS011;2172;53.576;9.934;2024-01-30T00:54:36;16.47;;;14.10;;
4317;SDS011;2172;53.576;9.934;2024-01-30T00:57:04;15.90;;;13.87;;
4317;SDS011;2172;53.576;9.934;2024-01-30T00:59:32;17.23;;;14.00;;
4317;SDS011;2172;53.576;9.934;2024-01-30T01:01:59;18.00;;;14.10;;
4317;SDS011;2172;53.576;9.934;2024-01-30T01:04:27;17.67;;;14.30;;
4317;SDS011;2172;53.576;9.934;2024-01-30T01:06:54;16.73;;;12.90;;
4317;SDS011;2172;53.576;9.934;2024-01-30T01:09:23;18.63;;;13.67;;
4317;SDS011;2172;53.576;9.934;2024-01-30T01:11:51;16.77;;;12.33;;
4317;SDS011;2172;53.576;9.934;2024-01-30T01:14:19;15.53;;;13.67;;
4317;SDS011;2172;53.576;9.934;2024-01-30T01:16:46;14.77;;;12.83;;
4317;SDS011;2172;53.576;9.934;2024-01-30T01:19:14;16.00;;;13.20;;
4317;SDS011;2172;53.576;9.934;2024-01-30T01:21:41;16.17;;;13.57;;
4317;SDS011;2172;53.576;9.934;2024-01-30T01:24:09;19.30;;;13.23;;
4317;SDS011;2172;53.576;9.934;2024-01-30T01:26:38;15.67;;;12.93;;
4317;SDS011;2172;53.576;9.934;2024-01-30T01:29:05;14.50;;;12.47;;
4317;SDS011;2172;53.576;9.934;2024-01-30T01:31:35;17.13;;;14.33;;
4317;SDS011;2172;53.576;9.934;2024-01-30T01:34:08;20.00;;;14.80;;
4317;SDS011;2172;53.576;9.934;2024-01-30T01:36:36;17.10;;;12.80;;
4317;SDS011;2172;53.576;9.934;2024-01-30T01:39:03;17.57;;;13.13;;
4317;SDS011;2172;53.576;9.934;2024-01-30T01:41:31;18.17;;;14.23;;
4317;SDS011;2172;53.576;9.934;2024-01-30T01:44:00;14.53;;;12.30;;
4317;SDS011;2172;53.576;9.934;2024-01-30T01:46:27;21.07;;;17.13;;
4317;SDS011;2172;53.576;9.934;2024-01-30T01:48:58;29.20;;;21.20;;
4317;SDS011;2172;53.576;9.934;2024-01-30T01:51:27;19.20;;;15.33;;
4317;SDS011;2172;53.576;9.934;2024-01-30T01:53:56;20.37;;;15.37;;
4317;SDS011;2172;53.576;9.934;2024-01-30T01:56:24;17.57;;;13.17;;
4317;SDS011;2172;53.576;9.934;2024-01-30T01:58:53;14.73;;;12.53;;
4317;SDS011;2172;53.576;9.934;2024-01-30T02:01:23;20.50;;;13.63;;
4317;SDS011;2172;53.576;9.934;2024-01-30T02:03:51;16.40;;;13.33;;
4317;SDS011;2172;53.576;9.934;2024-01-30T02:06:19;18.57;;;13.33;;
4317;SDS011;2172;53.576;9.934;2024-01-30T02:08:47;20.97;;;14.77;;
4317;SDS011;2172;53.576;9.934;2024-01-30T02:11:14;18.20;;;13.00;;
4317;SDS011;2172;53.576;9.934;2024-01-30T02:13:43;16.23;;;12.50;;
4317;SDS011;2172;53.576;9.934;2024-01-30T02:16:10;18.50;;;13.43;;
4317;SDS011;2172;53.576;9.934;2024-01-30T02:18:39;19.27;;;12.97;;
4317;SDS011;2172;53.576;9.934;2024-01-30T02:21:12;17.00;;;12.73;;
4317;SDS011;2172;53.576;9.934;2024-01-30T02:23:40;20.20;;;13.40;;
4317;SDS011;2172;53.576;9.934;2024-01-30T02:26:08;20.80;;;13.00;;
4317;SDS011;2172;53.576;9.934;2024-01-30T02:28:36;17.03;;;12.63;;
4317;SDS011;2172;53.576;9.934;2024-01-30T02:31:04;16.13;;;13.53;;
4317;SDS011;2172;53.576;9.934;2024-01-30T02:33:31;16.27;;;13.00;;
4317;SDS011;2172;53.576;9.934;2024-01-30T02:35:59;14.73;;;12.27;;
4317;SDS011;2172;53.576;9.934;2024-01-30T02:38:27;16.57;;;13.60;;
4317;SDS011;2172;53.576;9.934;2024-01-30T02:40:55;16.50;;;12.00;;
4317;SDS011;2172;53.576;9.934;2024-01-30T02:43:23;12.80;;;11.40;;
4317;SDS011;2172;53.576;9.934;2024-01-30T02:45:50;19.13;;;12.60;;
4317;SDS011;2172;53.576;9.934;2024-01-30T02:48:18;15.73;;;12.67;;
4317;SDS011;2172;53.576;9.934;2024-01-30T02:50:45;15.53;;;13.27;;
4317;SDS011;2172;53.576;9.934;2024-01-30T02:53:13;17.73;;;13.00;;
4317;SDS011;2172;53.576;9.934;2024-01-30T02:55:42;14.90;;;12.63;;
4317;SDS011;2172;53.576;9.934;2024-01-30T02:58:09;14.67;;;12.80;;
4317;SDS011;2172;53.576;9.934;2024-01-30T03:00:37;18.83;;;13.93;;
4317;SDS011;2172;53.576;9.934;2024-01-30T03:03:04;19.53;;;13.93;;
4317;SDS011;2172;53.576;9.934;2024-01-30T03:05:32;14.60;;;12.10;;
4317;SDS011;2172;53.576;9.934;2024-01-30T03:07:59;18.00;;;13.03;;
4317;SDS011;2172;53.576;9.934;2024-01-30T03:10:27;14.30;;;11.70;;
4317;SDS011;2172;53.576;9.934;2024-01-30T03:12:55;17.33;;;13.80;;
4317;SDS011;2172;53.576;9.934;2024-01-30T03:15:23;17.47;;;15.03;;
4317;SDS011;2172;53.576;9.934;2024-01-30T03:17:50;13.80;;;12.00;;
4317;SDS011;2172;53.576;9.934;2024-01-30T03:20:19;14.60;;;12.27;;
4317;SDS011;2172;53.576;9.934;2024-01-30T03:22:46;15.17;;;12.87;;
4317;SDS011;2172;53.576;9.934;2024-01-30T03:25:14;14.20;;;12.70;;
4317;SDS011;2172;53.576;9.934;2024-01-30T03:27:41;19.80;;;14.30;;
4317;SDS011;2172;53.576;9.934;2024-01-30T03:30:10;20.63;;;13.43;;
4317;SDS011;2172;53.576;9.934;2024-01-30T03:32:38;17.00;;;13.23;;
4317;SDS011;2172;53.576;9.934;2024-01-30T03:35:06;17.20;;;13.50;;
4317;SDS011;2172;53.576;9.934;2024-01-30T03:37:33;15.80;;;13.80;;
4317;SDS011;2172;53.576;9.934;2024-01-30T03:40:01;16.00;;;13.00;;
4317;SDS011;2172;53.576;9.934;2024-01-30T03:42:29;11.97;;;10.77;;
4317;SDS011;2172;53.576;9.934;2024-01-30T03:44:57;18.20;;;12.70;;
4317;SDS011;2172;53.576;9.934;2024-01-30T03:47:26;15.60;;;13.70;;
4317;SDS011;2172;53.576;9.934;2024-01-30T03:49:53;19.20;;;13.40;;
4317;SDS011;2172;53.576;9.934;2024-01-30T03:52:21;20.33;;;13.87;;
4317;SDS011;2172;53.576;9.934;2024-01-30T03:54:48;14.13;;;12.10;;
4317;SDS011;2172;53.576;9.934;2024-01-30T03:57:15;16.30;;;13.13;;
4317;SDS011;2172;53.576;9.934;2024-01-30T03:59:43;18.93;;;12.03;;
4317;SDS011;2172;53.576;9.934;2024-01-30T04:02:10;16.10;;;12.70;;
4317;SDS011;2172;53.576;9.934;2024-01-30T04:04:39;14.33;;;12.23;;
4317;SDS011;2172;53.576;9.934;2024-01-30T04:07:07;16.43;;;13.10;;
4317;SDS011;2172;53.576;9.934;2024-01-30T04:09:34;18.43;;;13.00;;
4317;SDS011;2172;53.576;9.934;2024-01-30T04:12:02;14.80;;;13.20;;
4317;SDS011;2172;53.576;9.934;2024-01-30T04:14:29;15.90;;;12.20;;
4317;SDS011;2172;53.576;9.934;2024-01-30T04:16:57;14.40;;;12.83;;
4317;SDS011;2172;53.576;9.934;2024-01-30T04:19:24;18.40;;;13.70;;
4317;SDS011;2172;53.576;9.934;2024-01-30T04:21:53;16.13;;;12.37;;
4317;SDS011;2172;53.576;9.934;2024-01-30T04:24:21;19.87;;;13.43;;
4317;SDS011;2172;53.576;9.934;2024-01-30T04:26:48;18.33;;;13.87;;
4317;SDS011;2172;53.576;9.934;2024-01-30T04:29:16;16.77;;;12.57;;
4317;SDS011;2172;53.576;9.934;2024-01-30T04:31:44;15.93;;;13.17;;
4317;SDS011;2172;53.576;9.934;2024-01-30T04:34:12;15.33;;;12.57;;
4317;SDS011;2172;53.576;9.934;2024-01-30T04:36:39;15.23;;;12.97;;
4317;SDS011;2172;53.576;9.934;2024-01-30T04:39:11;13.97;;;12.47;;
4317;SDS011;2172;53.576;9.934;2024-01-30T04:41:39;18.40;;;13.87;;
4317;SDS011;2172;53.576;9.934;2024-01-30T04:44:06;14.17;;;12.20;;
4317;SDS011;2172;53.576;9.934;2024-01-30T04:46:34;17.57;;;13.10;;
4317;SDS011;2172;53.576;9.934;2024-01-30T04:49:02;20.40;;;14.80;;
4317;SDS011;2172;53.576;9.934;2024-01-30T04:51:29;16.23;;;13.13;;
4317;SDS011;2172;53.576;9.934;2024-01-30T04:53:57;17.30;;;13.90;;
4317;SDS011;2172;53.576;9.934;2024-01-30T04:56:26;18.03;;;14.50;;
4317;SDS011;2172;53.576;9.934;2024-01-30T04:58:53;17.30;;;13.97;;
4317;SDS011;2172;53.576;9.934;2024-01-30T05:01:21;17.60;;;13.63;;
4317;SDS011;2172;53.576;9.934;2024-01-30T05:03:48;16.47;;;13.30;;
4317;SDS011;2172;53.576;9.934;2024-01-30T05:06:23;15.77;;;13.03;;
4317;SDS011;2172;53.576;9.934;2024-01-30T05:08:51;18.93;;;13.83;;
4317;SDS011;2172;53.576;9.934;2024-01-30T05:11:19;21.30;;;14.80;;
4317;SDS011;2172;53.576;9.934;2024-01-30T05:13:48;17.00;;;13.80;;
4317;SDS011;2172;53.576;9.934;2024-01-30T05:16:15;16.10;;;13.60;;
4317;SDS011;2172;53.576;9.934;2024-01-30T05:18:43;17.93;;;14.30;;
4317;SDS011;2172;53.576;9.934;2024-01-30T05:21:10;16.90;;;13.30;;
4317;SDS011;2172;53.576;9.934;2024-01-30T05:23:38;17.93;;;13.73;;
4317;SDS011;2172;53.576;9.934;2024-01-30T05:26:06;19.63;;;13.80;;
4317;SDS011;2172;53.576;9.934;2024-01-30T05:28:34;17.90;;;13.90;;
4317;SDS011;2172;53.576;9.934;2024-01-30T05:31:03;19.90;;;15.40;;
4317;SDS011;2172;53.576;9.934;2024-01-30T05:33:31;17.23;;;13.37;;
4317;SDS011;2172;53.576;9.934;2024-01-30T05:35:58;19.70;;;14.17;;
4317;SDS011;2172;53.576;9.934;2024-01-30T05:38:26;15.20;;;13.40;;
4317;SDS011;2172;53.576;9.934;2024-01-30T05:40:53;17.63;;;14.60;;
4317;SDS011;2172;53.576;9.934;2024-01-30T05:43:23;16.90;;;13.27;;
4317;SDS011;2172;53.576;9.934;2024-01-30T05:45:50;20.00;;;14.93;;
4317;SDS011;2172;53.576;9.934;2024-01-30T05:48:19;18.83;;;14.53;;
4317;SDS011;2172;53.576;9.934;2024-01-30T05:50:47;19.40;;;15.00;;
4317;SDS011;2172;53.576;9.934;2024-01-30T05:53:14;19.03;;;14.47;;
4317;SDS011;2172;53.576;9.934;2024-01-30T05:55:42;20.57;;;14.53;;
4317;SDS011;2172;53.576;9.934;2024-01-30T05:58:09;22.97;;;15.77;;
4317;SDS011;2172;53.576;9.934;2024-01-30T06:00:37;17.67;;;14.33;;
4317;SDS011;2172;53.576;9.934;2024-01-30T06:03:04;25.00;;;15.10;;
4317;SDS011;2172;53.576;9.934;2024-01-30T06:05:34;19.93;;;16.50;;
4317;SDS011;2172;53.576;9.934;2024-01-30T06:08:02;20.97;;;15.60;;
4317;SDS011;2172;53.576;9.934;2024-01-30T06:10:29;20.77;;;14.60;;
4317;SDS011;2172;53.576;9.934;2024-01-30T06:12:57;18.00;;;14.00;;
4317;SDS011;2172;53.576;9.934;2024-01-30T06:15:24;17.57;;;14.93;;
4317;SDS011;2172;53.576;9.934;2024-01-30T06:17:52;20.07;;;15.53;;
4317;SDS011;2172;53.576;9.934;2024-01-30T06:20:19;26.30;;;16.57;;
4317;SDS011;2172;53.576;9.934;2024-01-30T06:22:48;20.70;;;14.57;;
4317;SDS011;2172;53.576;9.934;2024-01-30T06:25:16;17.60;;;15.70;;
4317;SDS011;2172;53.576;9.934;2024-01-30T06:27:44;20.37;;;15.20;;
4317;SDS011;2172;53.576;9.934;2024-01-30T06:30:11;19.53;;;16.13;;
4317;SDS011;2172;53.576;9.934;2024-01-30T06:32:40;19.87;;;15.83;;
4317;SDS011;2172;53.576;9.934;2024-01-30T06:35:07;19.20;;;15.07;;
4317;SDS011;2172;53.576;9.934;2024-01-30T06:37:35;21.83;;;14.73;;
4317;SDS011;2172;53.576;9.934;2024-01-30T06:40:05;21.67;;;14.53;;
4317;SDS011;2172;53.576;9.934;2024-01-30T06:42:34;23.30;;;15.90;;
4317;SDS011;2172;53.576;9.934;2024-01-30T06:45:01;21.80;;;15.40;;
4317;SDS011;2172;53.576;9.934;2024-01-30T06:47:29;24.43;;;15.57;;
4317;SDS011;2172;53.576;9.934;2024-01-30T06:49:57;20.47;;;15.43;;
4317;SDS011;2172;53.576;9.934;2024-01-30T06:52:25;21.30;;;16.80;;
4317;SDS011;2172;53.576;9.934;2024-01-30T06:54:52;20.93;;;16.10;;
4317;SDS011;2172;53.576;9.934;2024-01-30T06:57:21;23.00;;;16.13;;
4317;SDS011;2172;53.576;9.934;2024-01-30T06:59:48;22.83;;;15.33;;
4317;SDS011;2172;53.576;9.934;2024-01-30T07:02:25;22.90;;;15.60;;
4317;SDS011;2172;53.576;9.934;2024-01-30T07:04:52;21.70;;;15.70;;
4317;SDS011;2172;53.576;9.934;2024-01-30T07:07:20;16.83;;;14.80;;
4317;SDS011;2172;53.576;9.934;2024-01-30T07:09:48;20.93;;;15.40;;
4317;SDS011;2172;53.576;9.934;2024-01-30T07:12:22;24.00;;;16.57;;
4317;SDS011;2172;53.576;9.934;2024-01-30T07:14:51;17.93;;;14.83;;
4317;SDS011;2172;53.576;9.934;2024-01-30T07:17:18;21.53;;;17.00;;
4317;SDS011;2172;53.576;9.934;2024-01-30T07:19:46;27.03;;;16.33;;
4317;SDS011;2172;53.576;9.934;2024-01-30T07:22:13;22.33;;;16.40;;
4317;SDS011;2172;53.576;9.934;2024-01-30T07:24:42;31.20;;;18.50;;
4317;SDS011;2172;53.576;9.934;2024-01-30T07:27:13;23.47;;;16.50;;
4317;SDS011;2172;53.576;9.934;2024-01-30T07:29:44;19.47;;;16.23;;
4317;SDS011;2172;53.576;9.934;2024-01-30T07:32:11;23.80;;;17.10;;
4317;SDS011;2172;53.576;9.934;2024-01-30T07:34:39;21.00;;;16.53;;
4317;SDS011;2172;53.576;9.934;2024-01-30T07:37:06;25.30;;;17.30;;
4317;SDS011;2172;53.576;9.934;2024-01-30T07:39:35;22.63;;;16.43;;
4317;SDS011;2172;53.576;9.934;2024-01-30T07:42:03;23.17;;;15.97;;
4317;SDS011;2172;53.576;9.934;2024-01-30T07:44:31;24.00;;;15.80;;
4317;SDS011;2172;53.576;9.934;2024-01-30T07:47:00;22.40;;;17.27;;
4317;SDS011;2172;53.576;9.934;2024-01-30T07:49:28;28.10;;;16.20;;
4317;SDS011;2172;53.576;9.934;2024-01-30T07:51:55;24.40;;;17.23;;
4317;SDS011;2172;53.576;9.934;2024-01-30T07:54:23;19.93;;;16.93;;
4317;SDS011;2172;53.576;9.934;2024-01-30T07:56:50;24.10;;;17.10;;
4317;SDS011;2172;53.576;9.934;2024-01-30T07:59:18;24.73;;;16.77;;
4317;SDS011;2172;53.576;9.934;2024-01-30T08:01:49;25.00;;;16.50;;
4317;SDS011;2172;53.576;9.934;2024-01-30T08:04:18;22.47;;;15.80;;
4317;SDS011;2172;53.576;9.934;2024-01-30T08:06:46;18.97;;;16.17;;
4317;SDS011;2172;53.576;9.934;2024-01-30T08:09:14;21.23;;;16.17;;
4317;SDS011;2172;53.576;9.934;2024-01-30T08:11:41;22.67;;;17.47;;
4317;SDS011;2172;53.576;9.934;2024-01-30T08:14:09;19.80;;;16.10;;
4317;SDS011;2172;53.576;9.934;2024-01-30T08:16:36;24.73;;;18.07;;
4317;SDS011;2172;53.576;9.934;2024-01-30T08:19:04;25.23;;;17.43;;
4317;SDS011;2172;53.576;9.934;2024-01-30T08:21:32;23.43;;;16.47;;
4317;SDS011;2172;53.576;9.934;2024-01-30T08:24:02;24.63;;;18.37;;
4317;SDS011;2172;53.576;9.934;2024-01-30T08:26:31;25.87;;;17.03;;
4317;SDS011;2172;53.576;9.934;2024-01-30T08:28:58;21.00;;;17.73;;
4317;SDS011;2172;53.576;9.934;2024-01-30T08:31:26;20.00;;;17.20;;
4317;SDS011;2172;53.576;9.934;2024-01-30T08:33:53;21.20;;;17.93;;
4317;SDS011;2172;53.576;9.934;2024-01-30T08:36:21;23.43;;;17.10;;
4317;SDS011;2172;53.576;9.934;2024-01-30T08:38:50;25.20;;;16.60;;
4317;SDS011;2172;53.576;9.934;2024-01-30T08:41:18;22.37;;;16.80;;
4317;SDS011;2172;53.576;9.934;2024-01-30T08:43:45;19.80;;;16.70;;
4317;SDS011;2172;53.576;9.934;2024-01-30T08:46:13;25.23;;;17.10;;
4317;SDS011;2172;53.576;9.934;2024-01-30T08:48:43;22.60;;;17.00;;
4317;SDS011;2172;53.576;9.934;2024-01-30T08:51:11;24.20;;;16.70;;
4317;SDS011;2172;53.576;9.934;2024-01-30T08:53:39;23.73;;;16.53;;
4317;SDS011;2172;53.576;9.934;2024-01-30T08:56:08;24.80;;;17.97;;
4317;SDS011;2172;53.576;9.934;2024-01-30T08:58:35;24.87;;;18.13;;
4317;SDS011;2172;53.576;9.934;2024-01-30T09:01:03;23.47;;;19.10;;
4317;SDS011;2172;53.576;9.934;2024-01-30T09:03:31;28.20;;;17.70;;
4317;SDS011;2172;53.576;9.934;2024-01-30T09:05:59;23.73;;;17.93;;
4317;SDS011;2172;53.576;9.934;2024-01-30T09:08:26;22.33;;;17.37;;
4317;SDS011;2172;53.576;9.934;2024-01-30T09:10:54;22.80;;;17.07;;
4317;SDS011;2172;53.576;9.934;2024-01-30T09:13:23;22.03;;;18.00;;
4317;SDS011;2172;53.576;9.934;2024-01-30T09:15:51;29.13;;;17.77;;
4317;SDS011;2172;53.576;9.934;2024-01-30T09:18:18;25.07;;;18.47;;
4317;SDS011;2172;53.576;9.934;2024-01-30T09:20:46;22.40;;;17.20;;
4317;SDS011;2172;53.576;9.934;2024-01-30T09:23:14;20.47;;;17.43;;
4317;SDS011;2172;53.576;9.934;2024-01-30T09:25:42;23.97;;;18.10;;
4317;SDS011;2172;53.576;9.934;2024-01-30T09:28:10;21.57;;;17.63;;
4317;SDS011;2172;53.576;9.934;2024-01-30T09:30:38;25.10;;;17.83;;
4317;SDS011;2172;53.576;9.934;2024-01-30T09:33:06;24.43;;;18.77;;
4317;SDS011;2172;53.576;9.934;2024-01-30T09:35:34;25.20;;;17.47;;
4317;SDS011;2172;53.576;9.934;2024-01-30T09:38:02;25.87;;;17.70;;
4317;SDS011;2172;53.576;9.934;2024-01-30T09:40:30;25.77;;;18.23;;
4317;SDS011;2172;53.576;9.934;2024-01-30T09:42:57;23.10;;;17.33;;
4317;SDS011;2172;53.576;9.934;2024-01-30T09:45:26;23.33;;;18.43;;
4317;SDS011;2172;53.576;9.934;2024-01-30T09:47:55;19.93;;;17.57;;
4317;SDS011;2172;53.576;9.934;2024-01-30T09:50:25;21.50;;;18.03;;
4317;SDS011;2172;53.576;9.934;2024-01-30T09:52:54;25.40;;;18.70;;
4317;SDS011;2172;53.576;9.934;2024-01-30T09:55:22;24.43;;;17.77;;
4317;SDS011;2172;53.576;9.934;2024-01-30T09:57:50;21.40;;;18.70;;
4317;SDS011;2172;53.576;9.934;2024-01-30T10:00:17;22.97;;;18.60;;
4317;SDS011;2172;53.576;9.934;2024-01-30T10:02:45;23.37;;;19.07;;
4317;SDS011;2172;53.576;9.934;2024-01-30T10:05:16;22.80;;;17.87;;
4317;SDS011;2172;53.576;9.934;2024-01-30T10:07:55;23.20;;;18.43;;
4317;SDS011;2172;53.576;9.934;2024-01-30T10:10:24;22.80;;;17.43;;
4317;SDS011;2172;53.576;9.934;2024-01-30T10:12:51;24.23;;;17.93;;
4317;SDS011;2172;53.576;9.934;2024-01-30T10:15:19;25.00;;;18.10;;
4317;SDS011;2172;53.576;9.934;2024-01-30T10:17:46;23.73;;;18.27;;
4317;SDS011;2172;53.576;9.934;2024-01-30T10:20:15;27.70;;;18.83;;
4317;SDS011;2172;53.576;9.934;2024-01-30T10:22:43;27.27;;;19.13;;
4317;SDS011;2172;53.576;9.934;2024-01-30T10:25:11;30.30;;;17.93;;
4317;SDS011;2172;53.576;9.934;2024-01-30T10:27:39;22.70;;;17.80;;
4317;SDS011;2172;53.576;9.934;2024-01-30T10:30:07;21.47;;;17.93;;
4317;SDS011;2172;53.576;9.934;2024-01-30T10:32:35;23.43;;;18.10;;
4317;SDS011;2172;53.576;9.934;2024-01-30T10:35:02;23.07;;;17.63;;
4317;SDS011;2172;53.576;9.934;2024-01-30T10:37:31;28.20;;;20.20;;
4317;SDS011;2172;53.576;9.934;2024-01-30T10:40:02;22.80;;;18.90;;
4317;SDS011;2172;53.576;9.934;2024-01-30T10:42:31;28.43;;;18.80;;
4317;SDS011;2172;53.576;9.934;2024-01-30T10:45:00;22.10;;;18.53;;
4317;SDS011;2172;53.576;9.934;2024-01-30T10:47:34;21.57;;;18.10;;
4317;SDS011;2172;53.576;9.934;2024-01-30T10:50:02;24.43;;;18.83;;
4317;SDS011;2172;53.576;9.934;2024-01-30T10:52:31;24.63;;;18.73;;
4317;SDS011;2172;53.576;9.934;2024-01-30T10:55:00;27.80;;;19.70;;
4317;SDS011;2172;53.576;9.934;2024-01-30T10:57:29;23.47;;;18.37;;
4317;SDS011;2172;53.576;9.934;2024-01-30T10:59:57;25.23;;;18.93;;
4317;SDS011;2172;53.576;9.934;2024-01-30T11:02:26;24.77;;;18.50;;
4317;SDS011;2172;53.576;9.934;2024-01-30T11:04:55;27.57;;;19.07;;
4317;SDS011;2172;53.576;9.934;2024-01-30T11:07:24;20.93;;;17.57;;
4317;SDS011;2172;53.576;9.934;2024-01-30T11:09:59;21.73;;;17.90;;
4317;SDS011;2172;53.576;9.934;2024-01-30T11:12:27;23.73;;;18.30;;
4317;SDS011;2172;53.576;9.934;2024-01-30T11:15:02;21.37;;;17.60;;
4317;SDS011;2172;53.576;9.934;2024-01-30T11:17:43;24.03;;;18.77;;
4317;SDS011;2172;53.576;9.934;2024-01-30T11:20:14;26.00;;;18.73;;
4317;SDS011;2172;53.576;9.934;2024-01-30T11:22:42;25.20;;;19.57;;
4317;SDS011;2172;53.576;9.934;2024-01-30T11:25:12;25.50;;;19.27;;
4317;SDS011;2172;53.576;9.934;2024-01-30T11:27:41;21.77;;;18.10;;
4317;SDS011;2172;53.576;9.934;2024-01-30T11:30:09;24.23;;;17.77;;
4317;SDS011;2172;53.576;9.934;2024-01-30T11:32:37;26.03;;;18.30;;
4317;SDS011;2172;53.576;9.934;2024-01-30T11:35:05;21.13;;;16.67;;
4317;SDS011;2172;53.576;9.934;2024-01-30T11:37:36;19.43;;;17.33;;
4317;SDS011;2172;53.576;9.934;2024-01-30T11:40:05;25.67;;;17.63;;
4317;SDS011;2172;53.576;9.934;2024-01-30T11:42:35;22.30;;;18.23;;
4317;SDS011;2172;53.576;9.934;2024-01-30T11:45:05;22.40;;;17.67;;
4317;SDS011;2172;53.576;9.934;2024-01-30T11:47:34;20.30;;;17.57;;
4317;SDS011;2172;53.576;9.934;2024-01-30T11:50:02;24.00;;;16.47;;
4317;SDS011;2172;53.576;9.934;2024-01-30T11:52:31;25.40;;;17.07;;
4317;SDS011;2172;53.576;9.934;2024-01-30T11:54:59;15.87;;;14.13;;
4317;SDS011;2172;53.576;9.934;2024-01-30T11:57:27;19.13;;;13.77;;
4317;SDS011;2172;53.576;9.934;2024-01-30T11:59:56;17.23;;;13.40;;
4317;SDS011;2172;53.576;9.934;2024-01-30T12:02:24;17.57;;;13.20;;
4317;SDS011;2172;53.576;9.934;2024-01-30T12:04:52;16.87;;;14.10;;
4317;SDS011;2172;53.576;9.934;2024-01-30T12:07:19;16.30;;;14.17;;
4317;SDS011;2172;53.576;9.934;2024-01-30T12:09:52;17.93;;;12.73;;
4317;SDS011;2172;53.576;9.934;2024-01-30T12:12:21;22.30;;;13.57;;
4317;SDS011;2172;53.576;9.934;2024-01-30T12:14:49;17.83;;;13.73;;
4317;SDS011;2172;53.576;9.934;2024-01-30T12:17:24;17.50;;;15.00;;
4317;SDS011;2172;53.576;9.934;2024-01-30T12:20:02;20.17;;;14.50;;
4317;SDS011;2172;53.576;9.934;2024-01-30T12:22:32;17.53;;;13.70;;
4317;SDS011;2172;53.576;9.934;2024-01-30T12:25:04;17.50;;;14.33;;
4317;SDS011;2172;53.576;9.934;2024-01-30T12:27:32;17.30;;;13.57;;
4317;SDS011;2172;53.576;9.934;2024-01-30T12:29:59;18.37;;;15.00;;
4317;SDS011;2172;53.576;9.934;2024-01-30T12:32:29;15.23;;;12.43;;
4317;SDS011;2172;53.576;9.934;2024-01-30T12:34:56;19.07;;;13.70;;
4317;SDS011;2172;53.576;9.934;2024-01-30T12:37:24;16.07;;;13.10;;
4317;SDS011;2172;53.576;9.934;2024-01-30T12:39:52;21.63;;;14.20;;
4317;SDS011;2172;53.576;9.934;2024-01-30T12:42:20;17.63;;;13.20;;
4317;SDS011;2172;53.576;9.934;2024-01-30T12:44:48;17.10;;;13.00;;
4317;SDS011;2172;53.576;9.934;2024-01-30T12:47:16;20.33;;;14.03;;
4317;SDS011;2172;53.576;9.934;2024-01-30T12:49:44;18.53;;;14.03;;
4317;SDS011;2172;53.576;9.934;2024-01-30T12:52:12;17.97;;;14.97;;
4317;SDS011;2172;53.576;9.934;2024-01-30T12:54:40;18.00;;;13.87;;
4317;SDS011;2172;53.576;9.934;2024-01-30T12:57:08;20.70;;;14.73;;
4317;SDS011;2172;53.576;9.934;2024-01-30T12:59:35;16.80;;;14.67;;
4317;SDS011;2172;53.576;9.934;2024-01-30T13:02:03;18.67;;;14.10;;
4317;SDS011;2172;53.576;9.934;2024-01-30T13:04:30;17.70;;;14.17;;
4317;SDS011;2172;53.576;9.934;2024-01-30T13:06:59;17.00;;;14.20;;
4317;SDS011;2172;53.576;9.934;2024-01-30T13:09:29;17.70;;;14.27;;
4317;SDS011;2172;53.576;9.934;2024-01-30T13:11:57;17.60;;;13.83;;
4317;SDS011;2172;53.576;9.934;2024-01-30T13:14:25;23.87;;;13.97;;
4317;SDS011;2172;53.576;9.934;2024-01-30T13:16:52;16.27;;;13.80;;
4317;SDS011;2172;53.576;9.934;2024-01-30T13:19:20;18.80;;;14.50;;
4317;SDS011;2172;53.576;9.934;2024-01-30T13:21:48;18.37;;;13.13;;
4317;SDS011;2172;53.576;9.934;2024-01-30T13:24:17;18.00;;;13.27;;
4317;SDS011;2172;53.576;9.934;2024-01-30T13:26:46;19.83;;;14.20;;
4317;SDS011;2172;53.576;9.934;2024-01-30T13:29:14;22.00;;;14.87;;
4317;SDS011;2172;53.576;9.934;2024-01-30T13:31:42;15.27;;;13.27;;
4317;SDS011;2172;53.576;9.934;2024-01-30T13:34:11;19.93;;;15.10;;
4317;SDS011;2172;53.576;9.934;2024-01-30T13:36:39;16.40;;;13.90;;
4317;SDS011;2172;53.576;9.934;2024-01-30T13:39:07;19.90;;;14.43;;
4317;SDS011;2172;53.576;9.934;2024-01-30T13:41:37;19.20;;;14.23;;
4317;SDS011;2172;53.576;9.934;2024-01-30T13:44:04;18.37;;;13.57;;
4317;SDS011;2172;53.576;9.934;2024-01-30T13:46:32;18.80;;;13.90;;
4317;SDS011;2172;53.576;9.934;2024-01-30T13:49:00;19.10;;;14.20;;
4317;SDS011;2172;53.576;9.934;2024-01-30T13:51:27;17.97;;;14.13;;
4317;SDS011;2172;53.576;9.934;2024-01-30T13:53:55;22.73;;;15.90;;
4317;SDS011;2172;53.576;9.934;2024-01-30T13:56:23;21.70;;;14.20;;
4317;SDS011;2172;53.576;9.934;2024-01-30T13:58:53;15.87;;;14.17;;
4317;SDS011;2172;53.576;9.934;2024-01-30T14:01:22;24.03;;;14.57;;
4317;SDS011;2172;53.576;9.934;2024-01-30T14:03:49;16.13;;;13.90;;
4317;SDS011;2172;53.576;9.934;2024-01-30T14:06:17;16.20;;;13.77;;
4317;SDS011;2172;53.576;9.934;2024-01-30T14:08:44;27.93;;;14.90;;
4317;SDS011;2172;53.576;9.934;2024-01-30T14:11:12;17.67;;;13.90;;
4317;SDS011;2172;53.576;9.934;2024-01-30T14:13:40;17.13;;;13.20;;
4317;SDS011;2172;53.576;9.934;2024-01-30T14:16:10;20.90;;;15.67;;
4317;SDS011;2172;53.576;9.934;2024-01-30T14:18:38;17.83;;;12.53;;
4317;SDS011;2172;53.576;9.934;2024-01-30T14:21:06;22.57;;;15.80;;
4317;SDS011;2172;53.576;9.934;2024-01-30T14:23:34;18.40;;;14.10;;
4317;SDS011;2172;53.576;9.934;2024-01-30T14:26:01;21.33;;;14.90;;
4317;SDS011;2172;53.576;9.934;2024-01-30T14:28:29;19.77;;;14.50;;
4317;SDS011;2172;53.576;9.934;2024-01-30T14:30:56;18.23;;;13.63;;
4317;SDS011;2172;53.576;9.934;2024-01-30T14:33:25;23.93;;;14.77;;
4317;SDS011;2172;53.576;9.934;2024-01-30T14:35:53;21.27;;;13.57;;
4317;SDS011;2172;53.576;9.934;2024-01-30T14:38:20;16.73;;;13.53;;
4317;SDS011;2172;53.576;9.934;2024-01-30T14:40:50;23.17;;;15.40;;
4317;SDS011;2172;53.576;9.934;2024-01-30T14:43:17;29.17;;;19.50;;
4317;SDS011;2172;53.576;9.934;2024-01-30T14:45:45;18.90;;;14.07;;
4317;SDS011;2172;53.576;9.934;2024-01-30T14:48:14;20.30;;;14.43;;
4317;SDS011;2172;53.576;9.934;2024-01-30T14:50:43;19.60;;;13.83;;
4317;SDS011;2172;53.576;9.934;2024-01-30T14:53:11;17.20;;;14.27;;